Time;durP1;ratioP1;P1;durP2;ratioP2;P2;SDS_P1;SDS_P2;PMS_P1;PMS_P2;Temp;Humidity;BMP_temperature;BMP_pressure;BME280_temperature;BME280_humidity;BME280_pressure;Samples;Min_cycle;Max_cycle;Signal;HPM_P1;HPM_P2
2023/07/20 00:00:20;;;;;;;7.85;3.50;;;;;;;21.53;96.52;98057.72;4486130;32;20088;-67
2023/07/20 00:03:16;;;;;;;7.30;2.70;;;;;;;21.52;96.76;98064.06;4485901;32;20143;-67
2023/07/20 00:05:45;;;;;;;4.62;2.45;;;;;;;21.43;97.37;98052.06;4485861;32;20434;-67
2023/07/20 00:08:13;;;;;;;4.50;3.10;;;;;;;21.36;97.89;98046.00;4486040;32;20152;-67
2023/07/20 00:10:41;;;;;;;9.38;2.87;;;;;;;21.40;97.55;98058.66;4485699;32;20085;-67
2023/07/20 00:13:09;;;;;;;5.87;2.42;;;;;;;21.41;97.65;98054.94;4485170;32;20468;-67
2023/07/20 00:15:37;;;;;;;8.57;2.83;;;;;;;21.50;97.23;98052.00;4482021;32;20119;-67
2023/07/20 00:18:05;;;;;;;8.30;2.80;;;;;;;21.46;97.68;98051.63;4485725;32;20133;-67
2023/07/20 00:20:32;;;;;;;5.85;2.55;;;;;;;21.47;98.03;98041.75;4485861;32;20099;-68
2023/07/20 00:22:59;;;;;;;9.80;2.62;;;;;;;21.51;97.94;98040.31;4485505;32;20144;-67
2023/07/20 00:25:27;;;;;;;5.28;2.80;;;;;;;21.54;98.11;98037.19;4485554;32;20122;-67
2023/07/20 00:27:54;;;;;;;4.00;2.55;;;;;;;21.59;97.88;98040.81;4485949;32;20092;-67
2023/07/20 00:30:21;;;;;;;4.35;2.20;;;;;;;21.58;98.23;98043.69;4485696;32;20096;-68
2023/07/20 00:32:48;;;;;;;6.78;2.37;;;;;;;21.58;98.41;98054.34;4485526;32;20534;-67
2023/07/20 00:35:16;;;;;;;7.75;2.83;;;;;;;21.60;98.23;98055.78;4485587;32;20165;-67
2023/07/20 00:37:43;;;;;;;8.93;2.95;;;;;;;21.62;98.13;98050.22;4485739;32;20562;-67
2023/07/20 00:40:10;;;;;;;9.45;2.80;;;;;;;21.65;98.05;98055.09;4485672;32;20159;-67
2023/07/20 00:42:38;;;;;;;6.03;2.83;;;;;;;21.55;98.56;98054.81;4485540;32;20505;-68
2023/07/20 00:45:06;;;;;;;9.95;2.90;;;;;;;21.53;98.79;98043.53;4485422;32;20582;-67
2023/07/20 00:47:34;;;;;;;8.65;3.25;;;;;;;21.47;99.13;98037.25;4485731;32;20131;-67
2023/07/20 00:50:02;;;;;;;6.07;2.47;;;;;;;21.42;99.52;98040.59;4485210;32;20088;-67
2023/07/20 00:52:33;;;;;;;6.47;2.25;;;;;;;21.48;99.52;98038.06;4471909;32;20148;-67
2023/07/20 00:55:00;;;;;;;4.47;2.45;;;;;;;21.54;99.28;98032.66;4485336;32;20382;-67
2023/07/20 00:57:29;;;;;;;4.28;2.75;;;;;;;21.52;99.51;98032.09;4471643;32;20126;-67
2023/07/20 00:59:57;;;;;;;5.12;2.58;;;;;;;21.57;99.41;98029.53;4471167;32;20454;-67
2023/07/20 01:02:24;;;;;;;7.47;2.70;;;;;;;21.58;99.46;98027.72;4471342;32;20111;-67
2023/07/20 01:04:52;;;;;;;6.20;2.55;;;;;;;21.58;99.44;98022.38;4485185;32;20108;-67
2023/07/20 01:07:26;;;;;;;3.78;2.45;;;;;;;21.63;99.35;98017.16;4485410;32;20100;-67
2023/07/20 01:09:57;;;;;;;6.37;2.83;;;;;;;21.64;99.28;98016.12;4471342;32;20093;-67
2023/07/20 01:12:42;;;;;;;7.35;2.70;;;;;;;21.67;99.00;98014.88;4485461;32;20060;-67
2023/07/20 01:15:10;;;;;;;6.87;3.10;;;;;;;21.62;99.27;98008.38;4480344;32;20559;-67
2023/07/20 01:17:38;;;;;;;7.10;2.35;;;;;;;21.65;99.16;98012.44;4485180;32;20100;-67
2023/07/20 01:20:07;;;;;;;4.05;2.40;;;;;;;21.62;99.37;98019.03;4485293;32;20089;-67
2023/07/20 01:22:52;;;;;;;6.20;2.72;;;;;;;21.59;99.62;98013.31;4485128;32;20488;-67
2023/07/20 01:25:58;;;;;;;6.70;2.65;;;;;;;21.49;100.00;98007.72;4471405;32;20100;-68
2023/07/20 01:28:57;;;;;;;9.23;3.50;;;;;;;21.47;100.00;97999.94;4485286;32;20100;-68
2023/07/20 01:31:27;;;;;;;6.68;3.05;;;;;;;21.43;100.00;97998.78;4471205;32;20084;-67
2023/07/20 01:34:01;;;;;;;5.30;2.80;;;;;;;21.42;100.00;98000.62;4471009;32;20087;-67
2023/07/20 01:36:30;;;;;;;10.57;3.10;;;;;;;21.32;100.00;98003.03;4470999;32;20100;-67
2023/07/20 01:38:58;;;;;;;9.57;3.05;;;;;;;21.36;100.00;98009.53;4471075;32;20130;-67
2023/07/20 01:41:26;;;;;;;7.25;2.83;;;;;;;21.31;100.00;98012.03;4470901;32;20096;-67
2023/07/20 01:43:59;;;;;;;7.60;2.87;;;;;;;21.27;100.00;98017.00;4484249;32;20142;-67
2023/07/20 01:46:26;;;;;;;8.57;3.12;;;;;;;21.23;100.00;98020.34;4485312;32;20120;-67
2023/07/20 01:48:55;;;;;;;5.80;2.80;;;;;;;21.21;100.00;98022.41;4484936;32;20100;-67
2023/07/20 01:51:24;;;;;;;6.97;2.97;;;;;;;21.20;100.00;98042.91;4470815;32;20088;-67
2023/07/20 01:53:52;;;;;;;9.82;2.30;;;;;;;21.17;100.00;98032.72;4485038;32;20104;-67
2023/07/20 01:56:20;;;;;;;6.57;2.80;;;;;;;21.14;100.00;98038.50;4485208;32;20093;-67
2023/07/20 01:58:48;;;;;;;4.57;2.80;;;;;;;21.14;100.00;98040.34;4485219;32;20160;-67
2023/07/20 02:01:16;;;;;;;9.25;3.47;;;;;;;21.13;100.00;98033.38;4485167;32;20118;-67
2023/07/20 02:03:45;;;;;;;8.60;2.65;;;;;;;21.09;100.00;98044.47;4484902;32;20446;-67
2023/07/20 02:06:13;;;;;;;5.57;3.00;;;;;;;21.07;100.00;98048.41;4478630;32;20149;-67
2023/07/20 02:08:40;;;;;;;9.95;2.78;;;;;;;21.03;100.00;98050.69;4484856;32;20201;-67
2023/07/20 02:11:09;;;;;;;11.68;2.58;;;;;;;21.01;100.00;98038.62;4484892;32;20091;-67
2023/07/20 02:13:38;;;;;;;7.00;2.97;;;;;;;21.06;100.00;98041.44;4480687;32;20122;-68
2023/07/20 02:16:05;;;;;;;5.55;2.67;;;;;;;21.09;100.00;98041.03;4484152;32;20988;-67
2023/07/20 02:18:35;;;;;;;8.48;2.50;;;;;;;21.14;100.00;98049.13;4484821;32;20096;-67
2023/07/20 02:21:03;;;;;;;5.53;2.95;;;;;;;21.14;100.00;98048.34;4484618;32;20155;-67
2023/07/20 02:23:30;;;;;;;4.18;2.50;;;;;;;21.13;100.00;98046.69;4484767;32;20465;-67
2023/07/20 02:25:58;;;;;;;8.05;3.20;;;;;;;21.18;99.57;98050.31;4484702;32;20482;-67
2023/07/20 02:28:27;;;;;;;3.55;2.60;;;;;;;21.19;99.31;98048.47;4484571;32;20112;-67
2023/07/20 02:30:55;;;;;;;4.43;2.78;;;;;;;21.26;99.07;98049.22;4484559;32;20088;-67
2023/07/20 02:33:22;;;;;;;6.93;2.65;;;;;;;21.26;99.13;98051.88;4484679;32;20152;-67
2023/07/20 02:35:51;;;;;;;6.15;2.78;;;;;;;21.26;99.11;98054.53;4484862;32;20588;-67
2023/07/20 02:38:18;;;;;;;5.85;2.95;;;;;;;21.26;99.34;98057.19;4484590;32;20541;-67
2023/07/20 02:40:46;;;;;;;7.00;2.42;;;;;;;21.31;98.53;98065.31;4484489;32;20164;-67
2023/07/20 02:43:14;;;;;;;6.30;3.03;;;;;;;21.28;98.09;98052.44;4484736;32;20088;-67
2023/07/20 02:45:44;;;;;;;6.10;2.78;;;;;;;21.27;98.59;98056.16;4484446;32;20104;-67
2023/07/20 02:48:12;;;;;;;5.87;2.45;;;;;;;21.20;99.52;98058.09;4484635;32;20107;-67
2023/07/20 02:50:41;;;;;;;5.78;2.97;;;;;;;21.23;99.83;98058.44;4484311;32;20213;-67
2023/07/20 02:53:09;;;;;;;6.50;2.87;;;;;;;21.21;99.98;98057.03;4470248;32;20456;-67
2023/07/20 02:55:36;;;;;;;5.20;2.70;;;;;;;21.11;100.00;98060.25;4486122;32;20127;-67
2023/07/20 02:58:04;;;;;;;7.05;2.95;;;;;;;21.14;100.00;98066.97;4486281;32;20114;-67
2023/07/20 03:00:32;;;;;;;5.07;2.60;;;;;;;21.02;100.00;98070.38;4486630;32;20114;-67
2023/07/20 03:03:00;;;;;;;6.22;2.70;;;;;;;20.98;100.00;98079.81;4486307;32;20092;-67
2023/07/20 03:05:28;;;;;;;4.47;2.72;;;;;;;20.99;100.00;98072.69;4486570;32;20119;-67
2023/07/20 03:07:56;;;;;;;8.95;3.05;;;;;;;20.95;100.00;98080.28;4486146;32;20461;-67
2023/07/20 03:10:23;;;;;;;7.15;2.40;;;;;;;20.89;100.00;98078.50;4486271;32;20096;-67
2023/07/20 03:12:51;;;;;;;5.18;3.03;;;;;;;20.88;100.00;98082.22;4486097;32;20088;-67
2023/07/20 03:15:18;;;;;;;5.60;3.08;;;;;;;20.85;99.69;98077.34;4467072;32;20209;-67
2023/07/20 03:17:46;;;;;;;6.28;3.03;;;;;;;20.85;100.00;98085.31;4485988;32;20114;-67
2023/07/20 03:20:14;;;;;;;8.15;2.83;;;;;;;20.77;100.00;98086.38;4486246;32;20563;-67
2023/07/20 03:22:41;;;;;;;7.00;3.25;;;;;;;20.79;99.60;98084.34;4485920;32;20525;-68
2023/07/20 03:25:09;;;;;;;5.20;3.10;;;;;;;20.79;99.75;98092.34;4486186;32;20759;-67
2023/07/20 03:27:37;;;;;;;6.30;2.62;;;;;;;20.83;100.00;98098.00;4486086;32;20096;-67
2023/07/20 03:30:06;;;;;;;5.65;3.10;;;;;;;20.86;99.49;98086.94;4486024;32;20152;-67
2023/07/20 03:32:34;;;;;;;10.55;2.95;;;;;;;20.82;99.06;98093.75;4486366;32;20126;-67
2023/07/20 03:35:02;;;;;;;3.62;2.45;;;;;;;20.83;98.58;98104.19;4486065;32;20455;-67
2023/07/20 03:37:30;;;;;;;5.93;2.20;;;;;;;20.82;97.89;98105.19;4485982;32;20111;-67
2023/07/20 03:39:58;;;;;;;4.12;2.65;;;;;;;20.85;97.03;98101.28;4486253;32;20462;-67
2023/07/20 03:42:26;;;;;;;4.55;2.35;;;;;;;20.89;96.15;98102.47;4486065;32;20150;-67
2023/07/20 03:44:53;;;;;;;4.18;2.30;;;;;;;20.91;95.96;98105.72;4486196;32;20100;-67
2023/07/20 03:47:21;;;;;;;3.92;2.65;;;;;;;20.82;97.06;98113.19;4486204;32;20096;-67
2023/07/20 03:49:48;;;;;;;3.92;2.50;;;;;;;20.86;97.09;98118.87;4485717;32;20461;-67
2023/07/20 03:52:16;;;;;;;5.45;3.10;;;;;;;20.83;96.78;98114.81;4485811;32;20180;-67
2023/07/20 03:54:44;;;;;;;6.95;2.60;;;;;;;20.81;96.14;98108.09;4485681;32;20088;-67
2023/07/20 03:57:12;;;;;;;5.18;2.47;;;;;;;20.87;95.46;98108.00;4485826;32;20092;-67
2023/07/20 03:59:39;;;;;;;5.28;2.50;;;;;;;20.88;95.26;98106.97;4485839;32;20381;-67
2023/07/20 04:02:08;;;;;;;4.65;2.40;;;;;;;20.90;95.39;98118.22;4485735;32;20126;-67
2023/07/20 04:04:35;;;;;;;3.95;2.42;;;;;;;20.90;96.21;98120.06;4485346;32;20092;-67
2023/07/20 04:07:03;;;;;;;5.32;2.53;;;;;;;20.89;96.66;98116.59;4484577;32;20139;-67
2023/07/20 04:09:31;;;;;;;6.45;2.45;;;;;;;20.88;96.71;98119.50;4485672;32;20092;-67
2023/07/20 04:12:00;;;;;;;8.00;2.78;;;;;;;20.83;96.94;98109.50;4485925;32;20577;-68
2023/07/20 04:14:28;;;;;;;6.03;2.12;;;;;;;20.90;96.17;98096.91;4485177;32;20195;-67
2023/07/20 04:16:56;;;;;;;5.45;2.50;;;;;;;20.96;94.74;98100.56;4484201;32;20171;-68
2023/07/20 04:19:23;;;;;;;6.28;3.08;;;;;;;21.02;92.38;98101.53;4478575;32;20169;-67
2023/07/20 04:21:51;;;;;;;4.35;2.92;;;;;;;21.08;90.84;98096.13;4491182;31;20526;-67
2023/07/20 04:24:18;;;;;;;4.80;2.60;;;;;;;21.18;89.44;98086.78;4487561;31;20157;-67
2023/07/20 04:26:46;;;;;;;5.93;2.47;;;;;;;21.22;89.67;98093.31;4485969;31;20089;-67
2023/07/20 04:29:13;;;;;;;4.30;2.67;;;;;;;21.28;88.82;98084.41;4484200;32;20502;-67
2023/07/20 04:31:41;;;;;;;7.55;2.53;;;;;;;21.42;87.40;98085.91;4483316;32;20123;-67
2023/07/20 04:34:08;;;;;;;6.82;3.00;;;;;;;21.57;85.94;98082.03;4483967;32;20104;-67
2023/07/20 04:36:36;;;;;;;5.87;2.55;;;;;;;21.64;84.46;98085.44;4477056;32;20572;-67
2023/07/20 04:39:04;;;;;;;8.82;2.55;;;;;;;21.73;84.40;98088.63;4483561;32;20096;-67
2023/07/20 04:41:41;;;;;;;7.78;2.97;;;;;;;21.88;83.92;98090.88;4482225;32;20088;-67
2023/07/20 04:44:08;;;;;;;4.53;2.37;;;;;;;22.06;83.57;98093.47;4484290;32;20092;-67
2023/07/20 04:46:36;;;;;;;5.45;3.03;;;;;;;22.16;83.33;98092.91;4485491;32;20084;-67
2023/07/20 04:49:03;;;;;;;3.83;2.30;;;;;;;22.15;83.90;98102.78;4485200;32;20204;-67
2023/07/20 04:51:31;;;;;;;6.57;2.55;;;;;;;22.37;83.08;98102.25;4485459;32;20131;-67
2023/07/20 04:53:58;;;;;;;5.35;2.67;;;;;;;22.33;82.76;98095.75;4485556;32;20550;-67
2023/07/20 04:56:27;;;;;;;3.58;2.58;;;;;;;22.27;83.12;98104.63;4468432;32;20150;-67
2023/07/20 04:58:54;;;;;;;6.35;2.67;;;;;;;22.31;82.74;98103.16;4483833;32;20548;-67
2023/07/20 05:01:21;;;;;;;4.22;2.53;;;;;;;22.22;83.16;98108.00;4485807;32;20093;-67
2023/07/20 05:03:49;;;;;;;5.97;3.12;;;;;;;22.17;83.85;98101.75;4485178;32;20104;-67
2023/07/20 05:06:19;;;;;;;5.62;2.87;;;;;;;22.03;85.49;98104.59;4485565;32;20103;-67
2023/07/20 05:08:46;;;;;;;5.53;2.33;;;;;;;22.06;85.16;98105.97;4484450;32;20084;-67
2023/07/20 05:11:14;;;;;;;7.55;3.08;;;;;;;22.19;85.29;98113.78;4484954;32;20221;-67
2023/07/20 05:13:41;;;;;;;7.40;2.70;;;;;;;22.21;86.65;98094.87;4482684;32;20090;-67
2023/07/20 05:16:09;;;;;;;8.55;3.00;;;;;;;22.04;87.62;98098.19;4485180;32;20092;-67
2023/07/20 05:18:36;;;;;;;6.75;2.55;;;;;;;22.00;88.81;98099.72;4480226;32;20171;-67
2023/07/20 05:21:05;;;;;;;4.53;2.42;;;;;;;21.92;88.97;98105.34;4482995;32;20166;-67
2023/07/20 05:23:32;;;;;;;4.47;2.65;;;;;;;21.98;88.29;98110.63;4479935;32;20100;-67
2023/07/20 05:26:02;;;;;;;6.85;2.85;;;;;;;21.99;87.88;98103.41;4485312;32;20095;-67
2023/07/20 05:28:29;;;;;;;6.53;3.22;;;;;;;22.00;86.76;98105.06;4485039;32;20191;-67
2023/07/20 05:30:59;;;;;;;7.72;2.97;;;;;;;22.06;85.03;98105.97;4484595;32;20088;-67
2023/07/20 05:33:27;;;;;;;6.25;2.90;;;;;;;22.15;83.88;98107.31;4483997;32;20123;-67
2023/07/20 05:35:55;;;;;;;5.45;2.78;;;;;;;22.19;83.69;98108.44;4480596;32;20136;-67
2023/07/20 05:38:23;;;;;;;7.37;3.00;;;;;;;22.31;82.58;98105.84;4478050;31;20110;-68
2023/07/20 05:40:51;;;;;;;7.00;2.90;;;;;;;22.46;82.64;98116.88;4480930;32;20135;-67
2023/07/20 05:43:19;;;;;;;5.15;2.97;;;;;;;22.63;82.32;98109.00;4479963;32;20536;-67
2023/07/20 05:45:47;;;;;;;8.02;3.00;;;;;;;22.72;80.95;98116.69;4464019;32;20151;-66
2023/07/20 05:48:16;;;;;;;5.60;2.85;;;;;;;22.81;80.93;98116.09;4476648;32;20095;-67
2023/07/20 05:50:46;;;;;;;6.10;2.80;;;;;;;22.88;80.42;98124.00;4477312;32;20584;-67
2023/07/20 05:53:13;;;;;;;4.03;2.65;;;;;;;22.98;78.92;98126.06;4479518;32;20192;-67
2023/07/20 05:55:41;;;;;;;5.25;2.80;;;;;;;23.06;78.36;98123.06;4479737;32;20242;-67
2023/07/20 05:58:09;;;;;;;5.80;2.65;;;;;;;23.15;76.21;98123.53;4480826;32;20156;-67
2023/07/20 06:00:37;;;;;;;7.70;3.15;;;;;;;23.20;75.89;98124.44;4478683;32;20131;-68
2023/07/20 06:03:04;;;;;;;7.82;2.80;;;;;;;23.39;75.61;98124.28;4480329;32;20118;-67
2023/07/20 06:05:33;;;;;;;4.28;2.80;;;;;;;23.51;74.59;98122.41;4479979;32;20173;-67
2023/07/20 06:08:01;;;;;;;9.80;3.17;;;;;;;23.41;74.36;98130.22;4480220;32;20075;-67
2023/07/20 06:10:31;;;;;;;4.87;2.90;;;;;;;23.68;72.93;98130.50;4479479;32;20084;-67
2023/07/20 06:12:58;;;;;;;4.60;3.10;;;;;;;23.76;71.91;98125.84;4476350;32;20100;-68
2023/07/20 06:15:27;;;;;;;7.72;2.60;;;;;;;23.85;70.95;98133.25;4480186;32;20711;-67
2023/07/20 06:17:56;;;;;;;3.62;2.78;;;;;;;23.70;70.75;98138.28;4479356;32;20116;-67
2023/07/20 06:20:24;;;;;;;6.35;3.75;;;;;;;23.82;71.34;98132.91;4478737;32;20108;-67
2023/07/20 06:22:51;;;;;;;7.68;3.28;;;;;;;23.81;71.60;98140.09;4475653;32;20131;-67
2023/07/20 06:25:20;;;;;;;5.65;2.92;;;;;;;23.63;71.40;98146.44;4477324;32;20156;-67
2023/07/20 06:27:50;;;;;;;7.87;3.30;;;;;;;23.51;71.51;98151.84;4480880;32;20119;-67
2023/07/20 06:30:18;;;;;;;6.00;2.80;;;;;;;23.54;72.21;98153.19;4475836;32;20442;-68
2023/07/20 06:32:46;;;;;;;5.28;2.53;;;;;;;23.35;73.05;98158.72;4474171;32;20546;-67
2023/07/20 06:35:16;;;;;;;6.85;2.97;;;;;;;23.33;74.44;98168.00;4470471;32;21565;-68
2023/07/20 06:37:44;;;;;;;7.72;3.10;;;;;;;23.20;73.89;98167.22;4474485;31;20156;-67
2023/07/20 06:40:12;;;;;;;6.40;3.28;;;;;;;23.19;73.96;98172.78;4476030;31;20627;-68
2023/07/20 06:42:43;;;;;;;16.62;5.65;;;;;;;23.10;72.76;98166.97;4473320;32;20146;-67
2023/07/20 06:45:15;;;;;;;5.45;3.20;;;;;;;23.35;72.07;98169.41;4475095;32;20506;-68
2023/07/20 06:47:43;;;;;;;8.02;3.42;;;;;;;23.60;67.94;98180.84;4472574;32;20363;-67
2023/07/20 06:50:10;;;;;;;4.37;2.85;;;;;;;23.81;67.15;98174.06;4474137;32;77664;-68
2023/07/20 06:52:46;;;;;;;4.22;3.45;;;;;;;24.25;66.62;98174.38;4473379;32;20181;-68
2023/07/20 06:55:15;;;;;;;5.03;3.10;;;;;;;24.54;66.04;98180.50;4481507;32;20092;-68
2023/07/20 06:57:51;;;;;;;5.75;3.10;;;;;;;24.67;63.74;98171.34;4477284;32;20484;-68
2023/07/20 07:00:19;;;;;;;4.90;2.83;;;;;;;24.76;62.46;98179.81;4479697;32;20539;-68
2023/07/20 07:02:46;;;;;;;5.00;2.87;;;;;;;24.86;61.65;98182.66;4476286;32;20104;-70
2023/07/20 07:05:18;;;;;;;7.78;3.00;;;;;;;25.05;62.46;98177.81;4470893;32;20512;-70
2023/07/20 07:07:48;;;;;;;4.05;3.00;;;;;;;25.13;59.07;98173.91;4477209;32;20112;-70
2023/07/20 07:10:18;;;;;;;8.10;3.10;;;;;;;25.27;58.64;98177.03;4459136;32;20163;-70
2023/07/20 07:12:46;;;;;;;5.22;2.78;;;;;;;25.35;55.85;98189.28;4473208;32;20100;-68
2023/07/20 07:15:13;;;;;;;3.55;2.30;;;;;;;25.28;54.54;98189.41;4473361;32;20080;-68
2023/07/20 07:17:41;;;;;;;6.97;2.97;;;;;;;25.25;54.07;98192.56;4477441;32;20511;-68
2023/07/20 07:20:10;;;;;;;5.72;2.83;;;;;;;25.43;55.27;98186.16;4475808;32;20092;-68
2023/07/20 07:22:47;;;;;;;5.57;2.83;;;;;;;25.40;55.29;98192.00;4473720;32;20101;-68
2023/07/20 07:25:20;;;;;;;3.83;2.55;;;;;;;25.47;54.14;98190.75;4460509;32;20167;-68
2023/07/20 07:27:53;;;;;;;3.10;2.20;;;;;;;25.50;54.16;98192.16;4476474;31;20534;-68
2023/07/20 07:30:21;;;;;;;4.45;2.50;;;;;;;25.43;54.45;98191.50;4475831;32;20471;-67
2023/07/20 07:32:48;;;;;;;6.45;2.50;;;;;;;25.56;55.04;98180.41;4476875;32;20104;-68
2023/07/20 07:35:16;;;;;;;6.40;2.83;;;;;;;25.55;53.37;98194.87;4476386;32;20515;-68
2023/07/20 07:37:43;;;;;;;6.20;2.80;;;;;;;25.50;54.67;98197.50;4477061;32;20089;-67
2023/07/20 07:40:30;;;;;;;4.40;2.87;;;;;;;25.51;54.25;98193.75;4470716;32;20084;-67
2023/07/20 07:42:59;;;;;;;5.37;3.17;;;;;;;25.58;54.47;98189.03;4475883;32;20146;-68
2023/07/20 07:45:27;;;;;;;6.65;2.80;;;;;;;25.59;54.11;98206.75;4478130;32;20493;-68
2023/07/20 07:47:54;;;;;;;4.40;2.70;;;;;;;25.52;54.47;98195.37;4472855;32;20165;-67
2023/07/20 07:50:22;;;;;;;4.22;2.50;;;;;;;25.57;53.94;98195.47;4475233;32;20123;-68
2023/07/20 07:52:50;;;;;;;5.00;2.70;;;;;;;25.31;54.64;98196.97;4475303;32;20123;-68
2023/07/20 07:55:17;;;;;;;6.60;2.67;;;;;;;25.07;54.55;98204.38;4469918;32;20170;-68
2023/07/20 07:57:47;;;;;;;4.55;2.78;;;;;;;25.30;54.05;98193.50;4482196;32;20591;-67
2023/07/20 08:00:18;;;;;;;7.20;3.12;;;;;;;25.40;52.18;98208.09;4482279;32;20525;-67
2023/07/20 08:02:49;;;;;;;3.20;2.17;;;;;;;25.60;52.74;98207.53;4476801;32;20092;-68
2023/07/20 08:05:17;;;;;;;5.12;2.45;;;;;;;25.76;52.11;98217.41;4477695;31;20560;-68
2023/07/20 08:07:45;;;;;;;4.20;1.98;;;;;;;25.44;52.54;98225.31;4480165;31;20135;-67
2023/07/20 08:10:13;;;;;;;13.50;3.28;;;;;;;25.29;53.29;98226.72;4479614;31;20188;-68
2023/07/20 08:12:41;;;;;;;5.45;2.53;;;;;;;25.15;53.56;98228.91;4478249;32;20181;-68
2023/07/20 08:15:10;;;;;;;3.40;2.33;;;;;;;24.99;54.42;98227.03;4479482;32;20096;-68
2023/07/20 08:17:38;;;;;;;5.90;2.22;;;;;;;25.04;54.82;98227.13;4477493;32;20088;-68
2023/07/20 08:20:06;;;;;;;6.47;2.08;;;;;;;25.43;53.68;98227.19;4465129;32;20151;-68
2023/07/20 08:22:34;;;;;;;9.40;2.45;;;;;;;26.16;51.25;98231.56;4476980;32;20084;-67
2023/07/20 08:25:02;;;;;;;7.50;2.45;;;;;;;26.43;50.87;98231.59;4478336;31;20163;-68
2023/07/20 08:27:29;;;;;;;3.85;2.60;;;;;;;26.55;49.39;98221.50;4464768;32;20167;-68
2023/07/20 08:29:56;;;;;;;4.60;2.50;;;;;;;26.74;50.01;98224.66;4478457;32;20122;-68
2023/07/20 08:32:27;;;;;;;6.68;2.25;;;;;;;27.24;49.02;98222.59;4480261;32;20100;-68
2023/07/20 08:34:55;;;;;;;6.75;2.30;;;;;;;27.54;48.66;98233.81;4481968;32;20108;-67
2023/07/20 08:37:22;;;;;;;5.20;2.17;;;;;;;27.79;47.13;98238.53;4481399;32;20100;-68
2023/07/20 08:39:51;;;;;;;7.80;2.40;;;;;;;27.69;45.70;98239.28;4480163;32;20683;-68
2023/07/20 08:42:20;;;;;;;6.47;2.33;;;;;;;27.30;46.01;98255.72;4475812;32;20108;-68
2023/07/20 08:44:48;;;;;;;4.65;2.12;;;;;;;27.50;46.05;98256.94;4457485;32;20109;-68
2023/07/20 08:47:16;;;;;;;4.68;2.12;;;;;;;27.78;45.70;98266.50;4467453;32;20092;-68
2023/07/20 08:49:48;;;;;;;8.23;2.42;;;;;;;28.00;45.08;98250.22;4465049;32;20096;-68
2023/07/20 08:52:16;;;;;;;4.05;2.10;;;;;;;27.87;45.07;98248.78;4471916;32;20144;-68
2023/07/20 08:54:48;;;;;;;3.92;2.08;;;;;;;27.90;46.03;98247.44;4479459;32;20064;-68
2023/07/20 08:57:17;;;;;;;5.65;2.45;;;;;;;28.20;44.36;98251.34;4473311;32;20118;-68
2023/07/20 08:59:45;;;;;;;5.18;1.92;;;;;;;27.94;42.73;98259.31;4473111;32;20107;-68
2023/07/20 09:02:16;;;;;;;4.07;2.70;;;;;;;27.79;43.24;98265.44;4464054;32;20092;-68
2023/07/20 09:04:46;;;;;;;3.45;1.90;;;;;;;27.42;44.85;98269.00;4482004;32;20476;-68
2023/07/20 09:07:14;;;;;;;4.37;2.08;;;;;;;27.53;45.33;98283.34;4459604;32;20571;-67
2023/07/20 09:09:43;;;;;;;3.80;2.15;;;;;;;27.53;45.23;98262.63;4463846;32;20093;-68
2023/07/20 09:12:16;;;;;;;5.20;2.03;;;;;;;27.60;45.42;98262.38;4477176;32;20157;-68
2023/07/20 09:14:44;;;;;;;4.97;2.37;;;;;;;27.93;45.45;98263.91;4484256;32;20118;-68
2023/07/20 09:17:15;;;;;;;3.65;2.25;;;;;;;27.84;44.70;98270.03;4479434;32;20794;-68
2023/07/20 09:19:48;;;;;;;5.15;2.15;;;;;;;27.73;43.19;98253.81;4471242;32;20081;-67
2023/07/20 09:22:17;;;;;;;3.97;1.60;;;;;;;27.85;43.45;98268.97;4473103;32;20157;-67
2023/07/20 09:24:45;;;;;;;4.15;1.70;;;;;;;28.14;43.42;98264.78;4473686;32;20183;-67
2023/07/20 09:27:13;;;;;;;8.25;2.60;;;;;;;27.82;42.70;98267.59;4481360;32;20171;-67
2023/07/20 09:29:49;;;;;;;5.95;1.98;;;;;;;27.78;42.33;98264.63;4481351;32;20080;-67
2023/07/20 09:32:21;;;;;;;6.00;2.17;;;;;;;28.05;42.09;98266.38;4472919;32;20131;-67
2023/07/20 09:34:53;;;;;;;12.43;2.40;;;;;;;28.05;41.49;98266.38;4472793;32;20156;-67
2023/07/20 09:37:24;;;;;;;6.85;2.25;;;;;;;27.94;41.88;98268.19;4479599;32;20156;-67
2023/07/20 09:39:55;;;;;;;4.03;2.40;;;;;;;28.00;42.28;98257.50;4475657;31;20119;-67
2023/07/20 09:42:26;;;;;;;8.43;2.10;;;;;;;28.35;41.72;98266.75;4478549;32;20097;-67
2023/07/20 09:44:57;;;;;;;6.18;1.90;;;;;;;28.42;41.90;98276.19;4472530;32;20572;-67
2023/07/20 09:47:26;;;;;;;7.55;2.00;;;;;;;28.41;41.25;98266.47;4463273;32;20118;-67
2023/07/20 09:50:03;;;;;;;14.75;3.72;;;;;;;28.71;41.39;98256.88;4483862;32;20093;-67
2023/07/20 09:52:34;;;;;;;5.43;2.00;;;;;;;29.30;40.16;98265.50;4483388;32;20131;-67
2023/07/20 09:55:06;;;;;;;4.80;1.98;;;;;;;29.29;40.10;98266.59;4480795;32;20135;-67
2023/07/20 09:57:38;;;;;;;7.95;2.22;;;;;;;29.26;39.96;98272.53;4483345;32;20769;-67
2023/07/20 10:00:15;;;;;;;4.70;1.80;;;;;;;29.08;40.12;98273.84;4483157;31;20467;-67
2023/07/20 10:02:46;;;;;;;5.50;2.22;;;;;;;28.93;40.11;98267.38;4481359;32;20163;-67
2023/07/20 10:05:14;;;;;;;5.30;2.25;;;;;;;29.13;40.46;98273.84;4469464;32;20101;-67
2023/07/20 10:07:48;;;;;;;5.53;2.22;;;;;;;28.91;40.62;98272.22;4467555;32;20088;-67
2023/07/20 10:10:18;;;;;;;5.15;2.05;;;;;;;29.14;40.29;98280.84;4474038;32;20092;-67
2023/07/20 10:12:49;;;;;;;4.32;2.55;;;;;;;29.50;40.63;98291.66;4476909;32;20104;-67
2023/07/20 10:15:23;;;;;;;5.05;2.22;;;;;;;29.58;41.01;98274.06;4476549;32;20500;-68
2023/07/20 10:18:04;;;;;;;3.53;2.30;;;;;;;29.38;40.90;98281.13;4462985;32;20141;-67
2023/07/20 10:20:35;;;;;;;9.18;2.40;;;;;;;28.76;41.72;98291.91;4465062;32;20092;-68
2023/07/20 10:23:04;;;;;;;5.15;2.08;;;;;;;28.63;42.23;98281.62;4471280;32;20104;-68
2023/07/20 10:25:33;;;;;;;3.58;2.20;;;;;;;28.83;41.51;98294.34;4473669;32;20104;-67
2023/07/20 10:28:01;;;;;;;3.12;2.50;;;;;;;28.60;42.75;98287.56;4478429;32;21102;-67
2023/07/20 10:30:31;;;;;;;3.67;2.30;;;;;;;28.74;41.63;98279.78;4479819;32;20119;-67
2023/07/20 10:33:11;;;;;;;5.55;2.00;;;;;;;28.61;42.33;98286.50;4469254;32;20466;-68
2023/07/20 10:36:05;;;;;;;6.97;2.08;;;;;;;28.83;41.57;98280.88;4452147;32;20180;-68
2023/07/20 10:38:42;;;;;;;2.40;2.05;;;;;;;28.81;42.41;98277.63;4474497;32;21031;-68
2023/07/20 10:41:21;;;;;;;4.93;1.87;;;;;;;28.93;42.65;98275.47;4476604;31;20144;-67
2023/07/20 10:43:49;;;;;;;3.35;1.98;;;;;;;28.65;41.46;98280.31;4468979;31;20096;-67
2023/07/20 10:46:45;;;;;;;3.35;1.95;;;;;;;28.46;42.49;98277.28;4478228;32;20101;-67
2023/07/20 10:49:16;;;;;;;7.85;2.10;;;;;;;28.75;41.29;98282.22;4481491;32;20146;-67
2023/07/20 10:51:48;;;;;;;5.57;1.70;;;;;;;29.00;40.08;98275.22;4479331;32;20543;-67
2023/07/20 10:54:16;;;;;;;5.60;2.03;;;;;;;29.16;39.90;98274.12;4480220;32;20132;-67
2023/07/20 10:56:52;;;;;;;5.00;2.17;;;;;;;29.29;38.69;98274.69;4479932;32;20101;-68
2023/07/20 10:59:24;;;;;;;5.28;2.03;;;;;;;29.11;39.31;98270.63;4481246;32;20088;-67
2023/07/20 11:01:59;;;;;;;2.22;1.75;;;;;;;29.05;39.61;98274.41;4481022;32;20167;-67
2023/07/20 11:04:42;;;;;;;3.87;1.48;;;;;;;28.61;38.50;98273.03;4481367;32;20096;-68
2023/07/20 11:07:16;;;;;;;4.45;2.20;;;;;;;28.70;39.45;98282.19;4481378;32;20597;-66
2023/07/20 11:09:45;;;;;;;7.12;1.83;;;;;;;28.65;39.31;98284.91;4466137;32;20399;-67
2023/07/20 11:12:17;;;;;;;4.47;2.42;;;;;;;28.39;40.36;98271.34;4469691;32;20552;-67
2023/07/20 11:14:59;;;;;;;3.15;1.75;;;;;;;28.35;39.91;98272.94;4483317;32;20097;-67
2023/07/20 11:17:33;;;;;;;3.42;2.30;;;;;;;28.54;39.73;98272.44;4481438;31;20139;-68
2023/07/20 11:20:02;;;;;;;5.97;1.95;;;;;;;28.49;40.66;98282.16;4486358;32;20616;-67
2023/07/20 11:22:32;;;;;;;3.22;1.67;;;;;;;28.32;39.53;98260.81;4471266;32;20583;-67
2023/07/20 11:25:00;;;;;;;6.22;2.08;;;;;;;27.92;39.53;98273.03;4468900;32;20490;-67
2023/07/20 11:27:28;;;;;;;3.95;2.00;;;;;;;27.65;40.35;98273.19;4465916;32;20127;-67
2023/07/20 11:29:56;;;;;;;7.03;1.60;;;;;;;27.32;41.44;98271.59;4484113;32;20167;-67
2023/07/20 11:32:24;;;;;;;8.00;1.98;;;;;;;27.24;41.82;98275.59;4483817;32;20120;-68
2023/07/20 11:34:52;;;;;;;5.40;1.70;;;;;;;27.32;41.44;98269.75;4477572;32;20130;-68
2023/07/20 11:37:19;;;;;;;4.82;2.03;;;;;;;27.35;41.62;98265.72;4481503;32;20092;-68
2023/07/20 11:39:48;;;;;;;2.75;1.75;;;;;;;27.21;41.70;98274.22;4484409;32;20114;-68
2023/07/20 11:42:15;;;;;;;3.45;1.65;;;;;;;27.13;42.29;98273.88;4486382;32;20206;-69